Flight Track Log - Related Links

Times and Time Zones

All times are in EDT time to prevent confusion due to time zone crossing. See the SKW4557 flight status page for this flight to view local times or setup timezone preferences in your user account.

Time Position Orientation Groundspeed Altitude Reporting Facility
EDT Latitude Longitude Course Direction KTS MPH feet Rate Location/Type
Thu 09:19:45 AM 41.9667 -87.8500 270° West 172 198 2,500  Level Chicago TRACON
Thu 09:20:45 AM 41.9167 -87.8833 206° Southwest 251 289 4,000 1,714 Climbing Chicago TRACON
Thu 09:21:51 AM 41.8500 -87.9500 217° Southwest 280 322 6,100 2,286 Climbing Chicago TRACON
Thu 09:22:00 AM 41.9328 -88.4407 265° West  Level FlightAware Approximate
Thu 09:22:51 AM 41.8500 -88.0500 270° West 280 322 8,800  Level Chicago TRACON
Thu 09:23:00 AM 41.9232 -88.5761 265° West  Level FlightAware Approximate
Thu 09:24:00 AM 41.9167 -88.7117 270° West  Level FlightAware Approximate
Thu 09:24:14 AM 41.8728 -88.1892 282° West 296 341 11,700  Level Chicago Center
Thu 09:25:00 AM 41.9000 -88.8504 270° West  Level FlightAware Approximate
Thu 09:25:15 AM 41.8806 -88.2983 276° West 294 338 14,600  Level Chicago Center
Thu 09:26:17 AM 41.8883 -88.4194 275° West 304 350 16,100 1,403 Climbing Chicago Center
Thu 09:27:19 AM 41.8972 -88.5461 275° West 339 390 17,500 1,366 Climbing Chicago Center
Thu 09:28:20 AM 41.9064 -88.6842 275° West 358 412 18,900 1,415 Climbing Chicago Center
Thu 09:29:22 AM 41.9136 -88.8239 274° West 372 428 20,400 1,452 Climbing Chicago Center
Thu 09:30:24 AM 41.9083 -88.9664 267° West 380 437 21,900 1,452 Climbing Chicago Center
Thu 09:31:26 AM 41.9050 -89.1086 268° West 380 437 23,400 1,463 Climbing Chicago Center
Thu 09:32:27 AM 41.8964 -89.2703 266° West 388 447 24,900 1,268 Climbing Chicago Center
Thu 09:33:29 AM 41.8811 -89.4153 262° West 393 452 26,000 1,016 Climbing Chicago Center
Thu 09:34:31 AM 41.8650 -89.5794 263° West 402 463 27,000 976 Climbing Chicago Center
Thu 09:35:32 AM 41.8511 -89.7325 263° West 409 471 28,000 976 Climbing Chicago Center
Thu 09:36:34 AM 41.8344 -89.8875 262° West 418 481 29,000 1,016 Climbing Chicago Center
Thu 09:37:36 AM 41.8183 -90.0422 262° West 418 481 30,100 1,024 Climbing Chicago Center
Thu 09:38:37 AM 41.8017 -90.1956 262° West 417 480 31,100 1,024 Climbing Chicago Center
Thu 09:39:39 AM 41.7836 -90.3642 262° West 419 482 32,200 1,016 Climbing Chicago Center
Thu 09:40:41 AM 41.7667 -90.5161 262° West 418 481 33,200 878 Climbing Chicago Center
Thu 09:41:42 AM 41.7522 -90.6494 262° West 407 468 34,000 390 Climbing Chicago Center
Thu 09:42:44 AM 41.7319 -90.8286 261° West 407 468 34,000  Level Chicago Center
Thu 09:43:46 AM 41.7144 -90.9831 261° West 414 476 34,000  Level Chicago Center
Thu 09:44:47 AM 41.6964 -91.1381 261° West 418 481 34,000  Level Chicago Center
Thu 09:45:49 AM 41.6800 -91.2917 262° West 419 482 34,000  Level Chicago Center
Thu 09:46:50 AM 41.6625 -91.4414 261° West 417 480 34,000  Level Chicago Center
Thu 09:47:52 AM 41.6450 -91.5928 261° West 416 479 34,000  Level Chicago Center
Thu 09:48:54 AM 41.6264 -91.7383 260° West 406 467 34,000  Level Chicago Center
Thu 09:49:55 AM 41.6053 -91.9164 261° West 405 466 34,000  Level Chicago Center
Thu 09:50:57 AM 41.5878 -92.0603 261° West 400 460 34,000  Level Chicago Center
Thu 09:51:59 AM 41.5689 -92.2067 260° West 400 460 34,000  Level Chicago Center
Thu 09:53:00 AM 41.5508 -92.3528 261° West 400 460 34,000  Level Chicago Center
Thu 09:54:02 AM 41.5322 -92.4981 260° West 400 460 34,000  Level Chicago Center
Thu 09:55:02 AM 41.5150 -92.6381 261° West 400 460 34,000  Level Minneapolis Center
Thu 09:56:03 AM 41.4914 -92.8144 260° West 401 461 34,000  Level Minneapolis Center
Thu 09:57:05 AM 41.4722 -92.9597 260° West 401 461 34,000  Level Minneapolis Center
Thu 09:58:06 AM 41.4539 -93.1058 261° West 401 461 34,000  Level Minneapolis Center
Thu 09:59:07 AM 41.4342 -93.2522 260° West 403 464 34,000  Level Minneapolis Center
Thu 10:00:08 AM 41.4142 -93.3978 260° West 403 464 34,000  Level Minneapolis Center
Thu 10:01:10 AM 41.3975 -93.5453 261° West 404 465 34,000  Level Minneapolis Center
Thu 10:02:11 AM 41.3889 -93.6928 266° West 404 465 34,000  Level Minneapolis Center
Thu 10:03:12 AM 41.3750 -93.8742 264° West 409 471 34,000  Level Minneapolis Center
Thu 10:04:13 AM 41.3642 -94.0222 264° West 409 471 34,000  Level Minneapolis Center
Thu 10:05:14 AM 41.3544 -94.1708 265° West 409 471 34,000  Level Minneapolis Center
Thu 10:06:16 AM 41.3425 -94.3167 264° West 409 471 34,000  Level Minneapolis Center
Thu 10:07:17 AM 41.3322 -94.4667 265° West 408 470 34,000  Level Minneapolis Center
Thu 10:08:18 AM 41.3192 -94.6164 263° West 408 470 34,000  Level Minneapolis Center
Thu 10:09:19 AM 41.3069 -94.7672 264° West 408 470 34,000  Level Minneapolis Center
Thu 10:10:21 AM 41.2961 -94.9189 265° West 408 470 34,000  Level Minneapolis Center
Thu 10:11:22 AM 41.2814 -95.0992 264° West 409 471 34,000  Level Minneapolis Center
Thu 10:12:23 AM 41.2689 -95.2508 264° West 409 471 34,000  Level Minneapolis Center
Thu 10:13:25 AM 41.2567 -95.4022 264° West 409 471 34,000  Level Minneapolis Center
Thu 10:14:26 AM 41.2428 -95.5544 263° West 410 472 34,000  Level Minneapolis Center
Thu 10:15:27 AM 41.2281 -95.7181 263° West 411 473 34,000  Level Minneapolis Center
Thu 10:16:28 AM 41.2144 -95.8683 263° West 411 473 34,000  Level Minneapolis Center
Thu 10:17:30 AM 41.2008 -96.0186 263° West 411 473 34,000  Level Minneapolis Center
Thu 10:18:31 AM 41.1886 -96.1683 264° West 409 471 34,000  Level Minneapolis Center
Thu 10:19:33 AM 41.1753 -96.3164 263° West 407 468 34,000  Level Minneapolis Center
Thu 10:20:34 AM 41.1608 -96.4622 263° West 407 468 34,000  Level Minneapolis Center
Thu 10:21:35 AM 41.1469 -96.6092 263° West 406 467 34,000  Level Minneapolis Center
Thu 10:22:37 AM 41.1322 -96.7567 262° West 404 465 34,000  Level Minneapolis Center
Thu 10:23:38 AM 41.1175 -96.9028 262° West 404 465 34,000  Level Minneapolis Center
Thu 10:24:39 AM 41.1039 -97.0486 263° West 403 464 34,000  Level Minneapolis Center
Thu 10:25:41 AM 41.0856 -97.2225 262° West 400 460 34,000  Level Minneapolis Center
Thu 10:26:42 AM 41.0714 -97.3681 263° West 399 459 34,000  Level Minneapolis Center
Thu 10:27:44 AM 41.0564 -97.5153 262° West 399 459 34,000  Level Minneapolis Center
Thu 10:28:45 AM 41.0408 -97.6600 262° West 398 458 34,000  Level Minneapolis Center
Thu 10:29:47 AM 41.0261 -97.8047 262° West 398 458 34,000  Level Minneapolis Center
Thu 10:30:48 AM 41.0108 -97.9483 262° West 397 457 34,000  Level Minneapolis Center
Thu 10:31:50 AM 40.9944 -98.0919 261° West 397 457 34,000  Level Minneapolis Center
Thu 10:32:51 AM 40.9794 -98.2356 262° West 396 456 34,000  Level Minneapolis Center
Thu 10:33:53 AM 40.9633 -98.3789 262° West 395 455 34,000  Level Minneapolis Center
Thu 10:34:55 AM 40.9453 -98.5431 262° West 394 453 34,000  Level Minneapolis Center
Thu 10:35:56 AM 40.9292 -98.6844 261° West 392 451 34,000  Level Minneapolis Center
Thu 10:36:58 AM 40.9133 -98.8267 262° West 392 451 34,000  Level Minneapolis Center
Thu 10:38:01 AM 40.8964 -98.9683 261° West 392 451 34,000  Level Minneapolis Center
Thu 10:39:04 AM 40.8778 -99.1250 261° West 392 451 34,000  Level Denver Center
Thu 10:40:06 AM 40.8611 -99.2675 261° West 392 451 34,000  Level Denver Center
Thu 10:41:06 AM 40.8444 -99.4125 261° West 392 451 34,000  Level Minneapolis Center
Thu 10:42:07 AM 40.8269 -99.5561 261° West 392 451 34,000  Level Minneapolis Center
Thu 10:43:09 AM 40.8089 -99.7006 261° West 394 453 34,000  Level Minneapolis Center
Thu 10:44:11 AM 40.8011 -99.8481 266° West 396 456 34,000  Level Minneapolis Center
Thu 10:45:12 AM 40.7944 -99.9961 267° West 399 459 34,000  Level Minneapolis Center
Thu 10:46:17 AM 40.7839 -100.1569 265° West 399 459 34,000  Level Denver Center
Thu 10:47:19 AM 40.7744 -100.3197 266° West 399 459 34,000  Level Denver Center
Thu 10:48:21 AM 40.7664 -100.4608 266° West 400 460 34,000  Level Denver Center
Thu 10:49:23 AM 40.7564 -100.6242 265° West 400 460 34,000  Level Denver Center
Thu 10:50:25 AM 40.7467 -100.7675 265° West 400 460 34,000  Level Denver Center
Thu 10:51:26 AM 40.7378 -100.9106 265° West 400 460 34,000  Level Denver Center
Thu 10:52:28 AM 40.7269 -101.0756 265° West 402 463 34,000  Level Denver Center
Thu 10:53:30 AM 40.7186 -101.1931 265° West 402 463 34,000  Level Denver Center
Thu 10:54:32 AM 40.7061 -101.3831 265° West 404 465 34,000  Level Denver Center
Thu 10:55:34 AM 40.6961 -101.5250 265° West 405 466 34,000  Level Denver Center
Thu 10:56:36 AM 40.6867 -101.6672 265° West 407 468 34,000  Level Denver Center
Thu 10:57:50 AM 40.6744 -101.8350 265° West 409 471 34,000  Level Denver Center
Thu 10:59:04 AM 40.6611 -102.0258 265° West 409 471 34,000  Level Denver Center
Thu 11:00:18 AM 40.6481 -102.1967 264° West 416 479 34,000  Level Denver Center
Thu 11:01:20 AM 40.6339 -102.3889 265° West 416 479 34,000  Level Denver Center
Thu 11:02:22 AM 40.6214 -102.5575 264° West 416 479 34,000  Level Denver Center
Thu 11:03:24 AM 40.6106 -102.7033 264° West 416 479 34,000  Level Denver Center
Thu 11:04:26 AM 40.5981 -102.8494 264° West 417 480 34,000  Level Denver Center
Thu 11:05:28 AM 40.5828 -103.0178 263° West 417 480 34,000  Level Denver Center
Thu 11:06:30 AM 40.5692 -103.1650 263° West 419 482 34,000  Level Denver Center
Thu 11:07:32 AM 40.5550 -103.3339 264° West 419 482 34,000  Level Denver Center
Thu 11:08:34 AM 40.5419 -103.4794 263° West 418 481 34,000  Level Denver Center
Thu 11:09:36 AM 40.5314 -103.6042 264° West 423 487 34,000  Level Denver Center
Thu 11:10:38 AM 40.5133 -103.7978 263° West 423 487 34,000  Level Denver Center
Thu 11:11:52 AM 40.4983 -103.9681 263° West 423 487 34,000  Level Denver Center
Thu 11:12:54 AM 40.4825 -104.1397 263° West 423 487 34,000  Level Denver Center
Thu 11:13:56 AM 40.4672 -104.3111 263° West 423 487 34,000  Level Denver Center
Thu 11:14:58 AM 40.4525 -104.4581 263° West 423 487 34,000  Level Denver Center
Thu 11:16:00 AM 40.4361 -104.6275 263° West 423 487 34,000  Level Denver Center
Thu 11:17:02 AM 40.4219 -104.7725 263° West 422 486 34,000  Level Denver Center
Thu 11:18:04 AM 40.4050 -104.9500 263° West 428 493 34,000  Level Denver Center
Thu 11:19:07 AM 40.3900 -105.0939 262° West 426 490 34,000  Level Denver Center
Thu 11:20:09 AM 40.3717 -105.2703 262° West 429 494 34,000  Level Denver Center
Thu 11:21:11 AM 40.3575 -105.4217 263° West 430 495 34,000  Level Denver Center
Thu 11:22:13 AM 40.3394 -105.5900 262° West 430 495 34,000  Level Denver Center
Thu 11:23:15 AM 40.3217 -105.7464 262° West 435 501 34,000  Level Denver Center
Thu 11:24:17 AM 40.3053 -105.9050 262° West 437 503 34,000  Level Denver Center
Thu 11:25:19 AM 40.2872 -106.0628 262° West 437 503 34,000  Level Denver Center
Thu 11:26:21 AM 40.2672 -106.2475 262° West 441 507 34,000  Level Denver Center
Thu 11:27:23 AM 40.2500 -106.3992 262° West 440 506 34,000  Level Denver Center
Thu 11:28:25 AM 40.2311 -106.5722 262° West 442 509 34,000  Level Denver Center
Thu 11:29:27 AM 40.2131 -106.7303 262° West 442 509 34,000  Level Denver Center
Thu 11:30:29 AM 40.1944 -106.8833 261° West 442 509 34,000  Level Denver Center
Thu 11:31:44 AM 40.1714 -107.0881 262° West 445 512 34,000  Level Denver Center
Thu 11:32:46 AM 40.1497 -107.2669 261° West 445 512 34,000  Level Denver Center
Thu 11:33:48 AM 40.1300 -107.4194 260° West 445 512 34,000  Level Denver Center
Thu 11:34:50 AM 40.1147 -107.5483 261° West 446 513 34,000  Level Denver Center
Thu 11:35:52 AM 40.0900 -107.7536 261° West 448 516 34,000  Level Denver Center
Thu 11:36:54 AM 40.0686 -107.9328 261° West 450 518 34,000  Level Denver Center
Thu 11:37:56 AM 40.0761 -108.0881 274° West 447 514 34,000  Level Denver Center
Thu 11:38:58 AM 40.0825 -108.2675 273° West 446 513 34,000  Level Denver Center
Thu 11:40:01 AM 40.0897 -108.4222 274° West 447 514 34,000  Level Denver Center
Thu 11:41:03 AM 40.0975 -108.6025 273° West 447 514 34,000  Level Denver Center
Thu 11:41:44 AM 40.1011 -108.7061 273° West 448 516 34,000  Level Salt Lake Center
Thu 11:42:46 AM 40.1081 -108.8844 273° West 447 514 34,000  Level Salt Lake Center
Thu 11:43:48 AM 40.1139 -109.0378 273° West 446 513 34,000  Level Salt Lake Center
Thu 11:44:50 AM 40.1206 -109.2194 273° West 447 514 34,000 -97 Level Salt Lake Center
Thu 11:45:52 AM 40.1261 -109.3756 273° West 448 516 33,800 -290 Descending Salt Lake Center
Thu 11:46:54 AM 40.1306 -109.5342 272° West 455 524 33,400 -484 Descending Salt Lake Center
Thu 11:47:56 AM 40.1375 -109.7225 273° West 464 534 32,800 -532 Descending Salt Lake Center
Thu 11:48:58 AM 40.1417 -109.8853 272° West 466 536 32,300 -581 Descending Salt Lake Center
Thu 11:50:00 AM 40.1478 -110.0753 272° West 468 539 31,600 -677 Descending Salt Lake Center
Thu 11:51:02 AM 40.1489 -110.2367 271° West 468 539 30,900 -726 Descending Salt Lake Center
Thu 11:52:04 AM 40.1472 -110.4269 269° West 469 540 30,100 -435 Descending Salt Lake Center
Thu 11:53:06 AM 40.1456 -110.5883 269° West 469 540 30,000 -48 Descending Salt Lake Center
Thu 11:54:08 AM 40.1433 -110.7706 269° West 453 521 30,000 -146 Level Salt Lake Center
Thu 11:55:09 AM 40.1411 -110.9250 269° West 448 516 29,700 -1,659 Descending Salt Lake Center
Thu 11:56:11 AM 40.1392 -111.1125 269° West 453 521 26,600 -2,952 Descending Salt Lake Center
Thu 11:57:13 AM 40.1367 -111.2711 269° West 439 505 23,600 -2,855 Descending Salt Lake Center
Thu 11:58:15 AM 40.1331 -111.4261 268° West 431 496 20,700 -2,300 Descending Salt Lake Center
Thu 11:59:13 AM 40.1386 -111.5783 273° West 384 442 19,000 -1,010 Descending Salt Lake Center
Thu 11:59:56 AM 40.1656 -111.6592 294° West 351 404 19,000  Level Salt Lake Center
Thu 12:00:19 PM 40.1833 -111.6897 307° West 356 410 19,000 -689 Level Salt Lake Center
Thu 12:00:57 PM 40.2142 -111.7831 293° West 371 427 18,300 -1,065 Descending Salt Lake Center
Thu 12:01:21 PM 40.2286 -111.8119 303° West 379 436 17,900 -1,180 Descending Salt Lake Center
Thu 12:01:58 PM 40.2647 -111.9178 294° West 405 466 17,100 -871 Descending Salt Lake Center
Thu 12:02:23 PM 40.2786 -111.9444 304° West 402 463 17,000 -984 Descending Salt Lake Center
Thu 12:02:59 PM 40.3442 -112.0033 326° Northwest 369 425 16,100 -1,548 Descending Salt Lake Center
Thu 12:03:25 PM 40.3875 -112.0269 337° Northwest 376 433 15,400 -1,600 Descending Salt Lake Center
Thu 12:03:59 PM 40.4431 -112.0572 337° Northwest 381 438 14,500 -1,645 Descending Salt Lake Center
Thu 12:04:27 PM 40.4892 -112.0589 358° North 377 434 13,700 -1,869 Descending Salt Lake Center
Thu 12:05:00 PM 40.5447 -112.0708 351° North 373 429 12,600 -1,935 Descending Salt Lake Center
Thu 12:05:29 PM 40.5914 -112.0725 358° North 370 426 11,700 -1,574 Descending Salt Lake Center
Thu 12:06:01 PM 40.6439 -112.0825 352° North 358 412 11,000 -677 Descending Salt Lake Center
Thu 12:06:31 PM 40.6853 -112.0842 358° North 331 381 11,000  Level Salt Lake Center
Thu 12:07:02 PM 40.7339 -112.0917 353° North 289 333 11,000  Level Salt Lake Center
Thu 12:07:32 PM 40.7653 -112.0928 358° North 286 329 11,000 -393 Level Salt Lake Center
Thu 12:08:03 PM 40.8061 -112.0983 354° North 227 261 10,600 -871 Descending Salt Lake Center
Thu 12:08:34 PM 40.8294 -112.1008 355° North 233 268 10,100 -1,475 Descending Salt Lake Center
Thu 12:09:04 PM 40.8706 -112.1078 353° North 232 267 9,100 -1,452 Descending Salt Lake Center
Thu 12:09:36 PM 40.8936 -112.1081 359° North 232 267 8,600 -1,377 Descending Salt Lake Center
Thu 12:10:05 PM 40.9353 -112.1086 359° North 240 276 7,700 -1,355 Descending Salt Lake Center
Thu 12:10:38 PM 40.9492 -112.0847 52° Northeast 234 269 7,200 -1,279 Descending Salt Lake Center
Thu 12:11:06 PM 40.9464 -112.0339 94° East 229 264 6,400 -1,065 Descending Salt Lake Center
Thu 12:11:40 PM 40.9186 -112.0111 148° Southeast 219 252 6,100 -492 Descending Salt Lake Center
Thu 12:12:07 PM 40.8947 -112.0117 181° South 199 229 5,900 -682 Descending Salt Lake Center
Thu 12:13:08 PM 40.8483 -112.0050 174° South 141 162 5,100 -804 Descending Salt Lake Center
Thu 12:13:44 PM 40.8267 -112.0014 173° South 144 166 4,600 -551 Descending Salt Lake Center
Thu 12:14:46 PM 40.7906 -111.9969 175° South 137 158 4,200 -387 Descending Salt Lake Center

Login

Don't have an account? Register now (free) for customized features, flight alerts, and more!